createdAt,value
2017-06-09T00:00:08.319Z,0
2017-06-09T00:01:08.327Z,0
2017-06-09T00:02:08.315Z,0
2017-06-09T00:03:08.291Z,0
2017-06-09T00:04:08.003Z,0
2017-06-09T00:05:07.953Z,0
2017-06-09T00:06:07.627Z,0
2017-06-09T00:07:08.276Z,0
2017-06-09T00:08:08.258Z,0
2017-06-09T00:09:08.257Z,0
2017-06-09T00:10:08.264Z,0
2017-06-09T00:11:08.297Z,0
2017-06-09T00:12:07.914Z,0
2017-06-09T00:13:07.906Z,0
2017-06-09T00:14:08.550Z,0
2017-06-09T00:15:08.541Z,0
2017-06-09T00:16:07.891Z,0
2017-06-09T00:17:07.877Z,0
2017-06-09T00:18:07.553Z,0
2017-06-09T00:19:08.533Z,0
2017-06-09T00:20:08.192Z,0
2017-06-09T00:21:07.855Z,0
2017-06-09T00:22:08.201Z,0
2017-06-09T00:23:07.854Z,0
2017-06-09T00:24:08.178Z,0
2017-06-09T00:25:07.509Z,0
2017-06-09T00:26:08.148Z,0
2017-06-09T00:27:08.139Z,0
2017-06-09T00:28:08.140Z,0
2017-06-09T00:29:08.126Z,0
2017-06-09T00:30:08.473Z,0
2017-06-09T00:31:08.128Z,0
2017-06-09T00:32:07.466Z,0
2017-06-09T00:33:08.118Z,0
2017-06-09T00:34:07.774Z,0
2017-06-09T00:35:07.818Z,0
2017-06-09T00:36:08.082Z,0
2017-06-09T00:37:08.075Z,0
2017-06-09T00:38:08.099Z,0
2017-06-09T00:39:07.775Z,0
2017-06-09T00:40:07.430Z,0
2017-06-09T00:41:08.071Z,0
2017-06-09T00:42:08.065Z,0
2017-06-09T00:43:07.718Z,0
2017-06-09T00:44:08.376Z,0
2017-06-09T00:45:08.024Z,0
2017-06-09T00:46:08.022Z,0
2017-06-09T00:47:07.703Z,0
2017-06-09T00:48:08.011Z,0
2017-06-09T00:49:08.004Z,0
2017-06-09T00:50:07.671Z,0
2017-06-09T00:51:07.990Z,0
2017-06-09T00:52:07.989Z,0
2017-06-09T00:53:07.673Z,0
2017-06-09T00:54:08.291Z,0
2017-06-09T00:55:07.319Z,0
2017-06-09T00:56:08.282Z,0
2017-06-09T00:57:07.967Z,0
2017-06-09T00:58:07.325Z,0
2017-06-09T00:59:07.936Z,0
2017-06-09T01:00:07.939Z,0
2017-06-09T01:01:08.253Z,0
2017-06-09T01:02:07.922Z,0
2017-06-09T01:03:07.920Z,0
2017-06-09T01:04:08.224Z,0
2017-06-09T01:05:07.588Z,0
2017-06-09T01:06:08.212Z,0
2017-06-09T01:07:08.217Z,0
2017-06-09T01:08:07.556Z,0
2017-06-09T01:09:07.867Z,0
2017-06-09T01:10:07.859Z,0
2017-06-09T01:11:07.559Z,0
2017-06-09T01:12:08.168Z,0
2017-06-09T01:13:08.160Z,0
2017-06-09T01:14:08.154Z,0
2017-06-09T01:15:07.502Z,0
2017-06-09T01:16:08.139Z,0
2017-06-09T01:17:08.146Z,0
2017-06-09T01:18:07.160Z,0
2017-06-09T01:19:08.149Z,0
2017-06-09T01:20:08.125Z,0
2017-06-09T01:21:07.481Z,0
2017-06-09T01:22:08.107Z,0
2017-06-09T01:23:07.776Z,0
2017-06-09T01:24:07.762Z,0
2017-06-09T01:25:08.082Z,0
2017-06-09T01:26:08.108Z,0
2017-06-09T01:27:07.571Z,0
2017-06-09T01:28:07.740Z,0
2017-06-09T01:29:07.428Z,0
2017-06-09T01:30:07.730Z,0
2017-06-09T01:31:07.718Z,0
2017-06-09T01:32:07.715Z,0
2017-06-09T01:33:08.032Z,0
2017-06-09T01:34:07.374Z,0
2017-06-09T01:35:07.690Z,0
2017-06-09T01:36:07.689Z,0
2017-06-09T01:37:07.716Z,0
2017-06-09T01:38:07.673Z,0
2017-06-09T01:39:07.688Z,0
2017-06-09T01:40:07.334Z,0
2017-06-09T01:41:07.654Z,0
2017-06-09T01:42:07.314Z,0
2017-06-09T01:43:07.989Z,0
2017-06-09T01:44:07.632Z,0
2017-06-09T01:45:07.938Z,0
2017-06-09T01:46:07.637Z,0
2017-06-09T01:47:07.289Z,0
2017-06-09T01:48:07.608Z,0
2017-06-09T01:49:07.909Z,0
2017-06-09T01:50:07.607Z,0
2017-06-09T01:51:07.580Z,0
2017-06-09T01:52:07.564Z,0
2017-06-09T01:53:07.267Z,0
2017-06-09T01:54:07.380Z,0
2017-06-09T01:55:07.547Z,0
2017-06-09T01:56:07.537Z,0
2017-06-09T01:57:07.538Z,0
2017-06-09T01:58:06.892Z,0
2017-06-09T01:59:07.251Z,0
2017-06-09T02:00:07.192Z,0
2017-06-09T02:01:07.833Z,0
2017-06-09T02:02:07.499Z,0
2017-06-09T02:03:06.868Z,0
2017-06-09T02:04:07.487Z,0
2017-06-09T02:05:07.819Z,0
2017-06-09T02:06:07.156Z,0
2017-06-09T02:07:07.795Z,0
2017-06-09T02:08:07.457Z,0
2017-06-09T02:09:07.777Z,0
2017-06-09T02:10:07.769Z,0
2017-06-09T02:11:07.438Z,0
2017-06-09T02:12:07.426Z,0
2017-06-09T02:13:07.419Z,0
2017-06-09T02:14:07.413Z,0
2017-06-09T02:15:07.729Z,0
2017-06-09T02:16:07.395Z,0
2017-06-09T02:17:07.397Z,0
2017-06-09T02:18:07.065Z,0
2017-06-09T02:19:07.059Z,4
2017-06-09T02:20:07.385Z,4
2017-06-09T02:21:07.044Z,4
2017-06-09T02:22:07.677Z,4
2017-06-09T02:23:07.695Z,0
2017-06-09T02:24:07.354Z,4
2017-06-09T02:25:06.689Z,4
2017-06-09T02:26:07.050Z,8
2017-06-09T02:27:07.321Z,4
2017-06-09T02:28:07.324Z,8
2017-06-09T02:29:06.665Z,4
2017-06-09T02:30:12.991Z,8
2017-06-09T02:31:07.617Z,8
2017-06-09T02:32:07.290Z,8
2017-06-09T02:33:06.961Z,12
2017-06-09T02:34:07.599Z,12
2017-06-09T02:35:07.267Z,12
2017-06-09T02:36:06.978Z,16
2017-06-09T02:37:07.615Z,20
2017-06-09T02:38:06.928Z,24
2017-06-09T02:39:06.912Z,24
2017-06-09T02:40:07.228Z,24
2017-06-09T02:41:07.233Z,32
2017-06-09T02:42:07.216Z,32
2017-06-09T02:43:07.207Z,40
2017-06-09T02:44:06.881Z,48
2017-06-09T02:45:06.870Z,56
2017-06-09T02:46:07.189Z,60
2017-06-09T02:47:07.206Z,72
2017-06-09T02:48:07.492Z,84
2017-06-09T02:49:07.500Z,88
2017-06-09T02:50:07.161Z,104
2017-06-09T02:51:07.151Z,112
2017-06-09T02:52:06.828Z,124
2017-06-09T02:53:07.156Z,136
2017-06-09T02:54:07.130Z,148
2017-06-09T02:55:06.812Z,164
2017-06-09T02:56:07.460Z,172
2017-06-09T02:57:07.125Z,180
2017-06-09T02:58:07.113Z,188
2017-06-09T02:59:07.100Z,200
2017-06-09T03:00:07.430Z,216
2017-06-09T03:01:07.408Z,236
2017-06-09T03:02:07.401Z,252
2017-06-09T03:03:07.117Z,272
2017-06-09T03:04:07.062Z,288
2017-06-09T03:05:06.735Z,304
2017-06-09T03:06:07.047Z,316
2017-06-09T03:07:07.064Z,332
2017-06-09T03:08:07.375Z,348
2017-06-09T03:09:07.348Z,368
2017-06-09T03:10:07.052Z,388
2017-06-09T03:11:06.693Z,412
2017-06-09T03:12:07.342Z,432
2017-06-09T03:13:07.026Z,456
2017-06-09T03:14:07.003Z,476
2017-06-09T03:15:06.981Z,500
2017-06-09T03:16:06.993Z,528
2017-06-09T03:17:06.328Z,556
2017-06-09T03:18:07.299Z,584
2017-06-09T03:19:07.280Z,608
2017-06-09T03:20:07.294Z,632
2017-06-09T03:21:07.270Z,656
2017-06-09T03:22:06.952Z,680
2017-06-09T03:23:06.285Z,692
2017-06-09T03:24:06.931Z,712
2017-06-09T03:25:06.619Z,728
2017-06-09T03:26:06.616Z,748
2017-06-09T03:27:06.581Z,760
2017-06-09T03:28:07.262Z,780
2017-06-09T03:29:06.568Z,792
2017-06-09T03:30:06.583Z,804
2017-06-09T03:31:06.885Z,816
2017-06-09T03:32:06.871Z,832
2017-06-09T03:33:06.860Z,848
2017-06-09T03:34:06.891Z,864
2017-06-09T03:35:06.526Z,884
2017-06-09T03:36:07.168Z,904
2017-06-09T03:37:06.868Z,924
2017-06-09T03:38:06.549Z,952
2017-06-09T03:39:06.497Z,976
2017-06-09T03:40:06.824Z,1004
2017-06-09T03:41:06.823Z,1040
2017-06-09T03:42:06.160Z,1068
2017-06-09T03:43:06.802Z,1104
2017-06-09T03:44:06.144Z,1144
2017-06-09T03:45:06.799Z,1188
2017-06-09T03:46:06.787Z,1236
2017-06-09T03:47:06.450Z,1296
2017-06-09T03:48:06.447Z,1360
2017-06-09T03:49:07.086Z,1420
2017-06-09T03:50:06.757Z,1476
2017-06-09T03:51:06.560Z,1544
2017-06-09T03:52:07.080Z,1612
2017-06-09T03:53:06.428Z,1676
2017-06-09T03:54:06.721Z,1748
2017-06-09T03:55:07.059Z,1820
2017-06-09T03:56:07.036Z,1900
2017-06-09T03:57:07.057Z,1976
2017-06-09T03:58:06.376Z,2060
2017-06-09T03:59:07.016Z,2140
2017-06-09T04:00:07.006Z,2220
2017-06-09T04:01:07.001Z,2288
2017-06-09T04:02:07.016Z,2360
2017-06-09T04:03:06.662Z,2432
2017-06-09T04:04:06.336Z,2500
2017-06-09T04:05:06.977Z,2572
2017-06-09T04:06:06.843Z,2636
2017-06-09T04:07:06.639Z,2696
2017-06-09T04:08:07.029Z,2756
2017-06-09T04:09:06.968Z,2804
2017-06-09T04:10:06.622Z,2844
2017-06-09T04:11:06.611Z,2880
2017-06-09T04:12:06.305Z,2912
2017-06-09T04:13:06.621Z,2940
2017-06-09T04:14:06.271Z,2960
2017-06-09T04:15:06.912Z,2972
2017-06-09T04:16:06.581Z,2980
2017-06-09T04:17:06.408Z,2988
2017-06-09T04:18:06.573Z,2996
2017-06-09T04:19:06.564Z,3000
2017-06-09T04:20:06.247Z,3004
2017-06-09T04:21:06.872Z,3008
2017-06-09T04:22:06.583Z,3004
2017-06-09T04:23:06.538Z,3000
2017-06-09T04:24:06.212Z,3004
2017-06-09T04:25:06.200Z,3008
2017-06-09T04:26:06.197Z,3016
2017-06-09T04:27:06.581Z,3020
2017-06-09T04:28:06.195Z,3016
2017-06-09T04:29:06.178Z,3012
2017-06-09T04:30:06.495Z,2996
2017-06-09T04:31:06.175Z,2988
2017-06-09T04:32:06.506Z,2976
2017-06-09T04:33:06.158Z,2960
2017-06-09T04:34:06.471Z,2940
2017-06-09T04:35:06.489Z,2924
2017-06-09T04:36:06.466Z,2924
2017-06-09T04:37:06.479Z,2908
2017-06-09T04:38:06.479Z,2888
2017-06-09T04:39:05.807Z,2884
2017-06-09T04:40:06.443Z,2880
2017-06-09T04:41:06.125Z,2896
2017-06-09T04:42:06.759Z,2920
2017-06-09T04:43:06.425Z,2948
2017-06-09T04:44:06.428Z,3000
2017-06-09T04:45:06.089Z,3092
2017-06-09T04:46:06.741Z,3184
2017-06-09T04:47:06.413Z,3284
2017-06-09T04:48:06.404Z,3380
2017-06-09T04:49:10.414Z,3488
2017-06-09T04:50:06.069Z,3628
2017-06-09T04:51:06.402Z,3792
2017-06-09T04:52:06.091Z,3980
2017-06-09T04:53:06.394Z,4156
2017-06-09T04:54:06.697Z,4240
2017-06-09T04:55:06.687Z,4236
2017-06-09T04:56:06.681Z,4308
2017-06-09T04:57:06.674Z,4452
2017-06-09T04:58:06.361Z,4608
2017-06-09T04:59:06.021Z,4780
2017-06-09T05:00:06.015Z,4908
2017-06-09T05:01:06.332Z,5052
2017-06-09T05:02:06.663Z,5196
2017-06-09T05:03:06.026Z,5360
2017-06-09T05:04:06.327Z,5532
2017-06-09T05:05:06.005Z,5688
2017-06-09T05:06:06.316Z,5860
2017-06-09T05:07:06.307Z,6064
2017-06-09T05:08:06.642Z,6260
2017-06-09T05:09:06.133Z,6472
2017-06-09T05:10:06.000Z,6688
2017-06-09T05:11:06.638Z,6904
2017-06-09T05:12:05.995Z,7060
2017-06-09T05:13:05.972Z,7156
2017-06-09T05:14:06.519Z,7272
2017-06-09T05:15:06.267Z,7404
2017-06-09T05:16:06.648Z,7452
2017-06-09T05:17:05.937Z,7480
2017-06-09T05:18:06.255Z,7484
2017-06-09T05:19:06.256Z,7480
2017-06-09T05:20:06.724Z,7476
2017-06-09T05:21:05.923Z,7444
2017-06-09T05:22:06.269Z,7372
2017-06-09T05:23:06.272Z,7324
2017-06-09T05:24:05.917Z,7272
2017-06-09T05:25:06.239Z,7212
2017-06-09T05:26:06.231Z,7176
2017-06-09T05:27:06.245Z,7188
2017-06-09T05:28:06.559Z,7160
2017-06-09T05:29:06.217Z,7104
2017-06-09T05:30:05.899Z,7024
2017-06-09T05:31:06.368Z,6948
2017-06-09T05:32:06.221Z,6892
2017-06-09T05:33:06.223Z,6904
2017-06-09T05:34:06.548Z,6964
2017-06-09T05:35:06.522Z,6852
2017-06-09T05:36:05.878Z,6812
2017-06-09T05:37:05.546Z,6860
2017-06-09T05:38:06.519Z,6988
2017-06-09T05:39:06.183Z,6976
2017-06-09T05:40:06.191Z,6960
2017-06-09T05:41:05.858Z,7008
2017-06-09T05:42:06.538Z,7072
2017-06-09T05:43:05.854Z,7136
2017-06-09T05:44:06.510Z,7208
2017-06-09T05:45:06.665Z,7296
2017-06-09T05:46:06.183Z,7312
2017-06-09T05:47:06.602Z,7372
2017-06-09T05:48:05.839Z,7484
2017-06-09T05:49:06.671Z,7464
2017-06-09T05:50:06.500Z,7512
2017-06-09T05:51:06.173Z,7496
2017-06-09T05:52:06.154Z,7548
2017-06-09T05:53:05.824Z,7616
2017-06-09T05:54:06.150Z,7600
2017-06-09T05:55:05.828Z,7628
2017-06-09T05:56:05.815Z,7628
2017-06-09T05:57:06.134Z,7776
2017-06-09T05:58:06.461Z,7952
2017-06-09T05:59:06.456Z,8120
2017-06-09T06:00:05.808Z,8320
2017-06-09T06:01:06.151Z,8616
2017-06-09T06:02:06.132Z,8896
2017-06-09T06:03:05.802Z,9128
2017-06-09T06:04:06.119Z,9272
2017-06-09T06:05:06.113Z,9308
2017-06-09T06:06:06.450Z,9348
2017-06-09T06:07:06.116Z,9344
2017-06-09T06:08:06.111Z,9292
2017-06-09T06:09:06.427Z,9564
2017-06-09T06:10:05.781Z,9896
2017-06-09T06:11:06.107Z,8684
2017-06-09T06:12:06.429Z,8312
2017-06-09T06:13:06.122Z,8124
2017-06-09T06:14:06.100Z,7884
2017-06-09T06:15:06.094Z,7652
2017-06-09T06:16:05.788Z,7552
2017-06-09T06:17:06.443Z,7436
2017-06-09T06:18:06.420Z,7388
2017-06-09T06:19:06.089Z,7360
2017-06-09T06:20:06.412Z,7364
2017-06-09T06:21:05.784Z,7344
2017-06-09T06:22:05.771Z,7400
2017-06-09T06:23:06.080Z,7416
2017-06-09T06:24:06.398Z,7412
2017-06-09T06:25:06.097Z,7404
2017-06-09T06:26:05.753Z,7384
2017-06-09T06:27:05.751Z,7300
2017-06-09T06:28:06.409Z,7264
2017-06-09T06:29:06.404Z,7164
2017-06-09T06:30:06.072Z,6972
2017-06-09T06:31:05.767Z,6984
2017-06-09T06:32:06.552Z,6872
2017-06-09T06:33:06.062Z,7292
2017-06-09T06:34:06.061Z,8380
2017-06-09T06:35:05.733Z,10596
2017-06-09T06:36:06.385Z,16108
2017-06-09T06:37:06.075Z,25280
2017-06-09T06:38:06.205Z,33120
2017-06-09T06:39:06.051Z,39840
2017-06-09T06:40:06.071Z,42848
2017-06-09T06:41:05.774Z,40224
2017-06-09T06:42:06.368Z,52576
2017-06-09T06:43:06.375Z,52416
2017-06-09T06:44:05.725Z,49344
2017-06-09T06:45:06.041Z,43552
2017-06-09T06:46:05.397Z,41952
2017-06-09T06:47:06.047Z,35296
2017-06-09T06:48:05.722Z,38848
2017-06-09T06:49:06.045Z,34016
2017-06-09T06:50:06.044Z,46752
2017-06-09T06:51:06.059Z,55968
2017-06-09T06:52:06.048Z,56640
2017-06-09T06:53:06.409Z,53760
2017-06-09T06:54:05.405Z,53376
2017-06-09T06:55:06.378Z,55552
2017-06-09T06:56:06.379Z,57088
2017-06-09T06:57:06.073Z,54912
2017-06-09T06:58:06.061Z,52192
2017-06-09T06:59:06.065Z,53984
2017-06-09T07:00:06.079Z,56032
2017-06-09T07:01:06.069Z,55392
2017-06-09T07:02:06.078Z,57088
2017-06-09T07:03:06.079Z,57472
2017-06-09T07:04:05.764Z,56736
2017-06-09T07:05:06.410Z,54304
2017-06-09T07:06:05.446Z,55520
2017-06-09T07:07:05.793Z,58880
2017-06-09T07:08:06.126Z,60800
2017-06-09T07:09:06.431Z,59008
2017-06-09T07:10:06.114Z,56768
2017-06-09T07:11:06.120Z,57792
2017-06-09T07:12:05.802Z,60384
2017-06-09T07:13:05.806Z,60672
2017-06-09T07:14:06.160Z,58944
2017-06-09T07:15:05.492Z,59424
2017-06-09T07:16:06.149Z,60320
2017-06-09T07:17:06.480Z,58592
2017-06-09T07:18:06.162Z,55264
2017-06-09T07:19:06.161Z,57056
2017-06-09T07:20:05.848Z,58400
2017-06-09T07:21:13.653Z,58080
2017-06-09T07:22:05.859Z,59328
2017-06-09T07:23:06.190Z,58400
2017-06-09T07:24:06.522Z,56672
2017-06-09T07:25:06.203Z,53632
2017-06-09T07:26:06.247Z,49984
2017-06-09T07:27:06.544Z,52544
2017-06-09T07:28:05.910Z,57536
2017-06-09T07:29:06.551Z,57312
2017-06-09T07:30:06.255Z,55008
2017-06-09T07:31:06.566Z,56032
2017-06-09T07:32:05.936Z,53824
2017-06-09T07:33:06.582Z,51776
2017-06-09T07:34:05.949Z,54400
2017-06-09T07:35:06.302Z,57920
2017-06-09T07:36:06.656Z,57088
2017-06-09T07:37:06.656Z,54336
2017-06-09T07:38:06.645Z,52256
2017-06-09T07:39:06.013Z,52768
2017-06-09T07:40:06.647Z,53152
2017-06-09T07:41:06.010Z,51424
2017-06-09T07:42:06.672Z,51712
2017-06-09T07:43:06.355Z,50976
2017-06-09T07:44:06.355Z,53760
2017-06-09T07:45:06.367Z,54336
2017-06-09T07:46:06.395Z,54336
2017-06-09T07:47:06.398Z,53792
2017-06-09T07:48:06.392Z,50048
2017-06-09T07:49:06.754Z,30528
2017-06-09T07:50:06.732Z,10644
2017-06-09T07:51:06.430Z,5744
2017-06-09T07:52:06.426Z,5152
2017-06-09T07:53:06.434Z,4804
2017-06-09T07:54:06.445Z,4564
2017-06-09T07:55:06.780Z,4380
2017-06-09T07:56:06.785Z,4240
2017-06-09T07:57:06.483Z,4112
2017-06-09T07:58:06.804Z,3980
2017-06-09T07:59:06.818Z,3880
2017-06-09T08:00:06.490Z,3788
2017-06-09T08:01:06.187Z,3728
2017-06-09T08:02:06.229Z,3696
2017-06-09T08:03:06.214Z,3656
2017-06-09T08:04:06.859Z,3628
2017-06-09T08:05:06.550Z,3612
2017-06-09T08:06:06.870Z,3584
2017-06-09T08:07:06.588Z,3564
2017-06-09T08:08:06.255Z,3560
2017-06-09T08:09:06.261Z,3536
2017-06-09T08:10:06.579Z,3532
2017-06-09T08:11:06.280Z,3524
2017-06-09T08:12:06.590Z,3512
2017-06-09T08:13:06.274Z,3484
2017-06-09T08:14:06.292Z,3460
2017-06-09T08:15:06.293Z,3444
2017-06-09T08:16:06.621Z,3424
2017-06-09T08:17:06.623Z,3412
2017-06-09T08:18:06.966Z,3392
2017-06-09T08:19:06.314Z,3376
2017-06-09T08:20:06.988Z,3376
2017-06-09T08:21:06.982Z,3372
2017-06-09T08:22:06.653Z,3360
2017-06-09T08:23:06.667Z,3352
2017-06-09T08:24:06.670Z,3352
2017-06-09T08:25:06.672Z,3344
2017-06-09T08:26:06.694Z,3332
2017-06-09T08:27:06.372Z,3328
2017-06-09T08:28:06.686Z,3328
2017-06-09T08:29:06.698Z,3316
2017-06-09T08:30:07.042Z,3312
2017-06-09T08:31:06.713Z,3300
2017-06-09T08:32:07.037Z,3284
2017-06-09T08:33:07.060Z,3268
2017-06-09T08:34:06.394Z,3268
2017-06-09T08:35:06.727Z,3256
2017-06-09T08:36:06.423Z,3252
2017-06-09T08:37:06.733Z,3248
2017-06-09T08:38:06.745Z,3252
2017-06-09T08:39:06.736Z,3264
2017-06-09T08:40:06.746Z,3244
2017-06-09T08:41:06.752Z,3232
2017-06-09T08:42:06.111Z,3236
2017-06-09T08:43:06.430Z,3236
2017-06-09T08:44:06.808Z,3224
2017-06-09T08:45:06.452Z,3232
2017-06-09T08:46:06.788Z,3224
2017-06-09T08:47:07.103Z,3228
2017-06-09T08:48:06.768Z,3216
2017-06-09T08:49:06.450Z,3200
2017-06-09T08:50:06.453Z,3204
2017-06-09T08:51:06.785Z,3204
2017-06-09T08:52:06.782Z,3204
2017-06-09T08:53:06.789Z,3200
2017-06-09T08:54:06.797Z,3196
2017-06-09T08:55:07.114Z,3196
2017-06-09T08:56:06.795Z,3188
2017-06-09T08:57:06.181Z,3188
2017-06-09T08:58:07.118Z,3208
2017-06-09T08:59:06.482Z,3216
2017-06-09T09:00:07.127Z,3240
2017-06-09T09:01:06.507Z,3248
2017-06-09T09:02:07.135Z,3236
2017-06-09T09:03:06.494Z,3240
2017-06-09T09:04:06.858Z,3268
2017-06-09T09:05:06.817Z,3264
2017-06-09T09:06:06.520Z,3260
2017-06-09T09:07:06.826Z,3268
2017-06-09T09:08:07.160Z,3352
2017-06-09T09:09:06.829Z,3396
2017-06-09T09:10:06.849Z,3396
2017-06-09T09:11:06.844Z,3376
2017-06-09T09:12:07.164Z,3364
2017-06-09T09:13:07.162Z,3336
2017-06-09T09:14:06.844Z,3324
2017-06-09T09:15:06.206Z,3316
2017-06-09T09:16:06.849Z,3324
2017-06-09T09:17:06.535Z,3348
2017-06-09T09:18:06.549Z,3376
2017-06-09T09:19:06.544Z,3412
2017-06-09T09:20:06.895Z,3452
2017-06-09T09:21:06.891Z,3488
2017-06-09T09:22:06.868Z,3512
2017-06-09T09:23:06.871Z,3532
2017-06-09T09:24:06.553Z,3512
2017-06-09T09:25:07.198Z,3500
2017-06-09T09:26:06.561Z,3496
2017-06-09T09:27:06.889Z,3500
2017-06-09T09:28:06.896Z,3480
2017-06-09T09:29:06.887Z,3620
2017-06-09T09:30:06.567Z,3748
2017-06-09T09:31:06.904Z,3736
2017-06-09T09:32:07.218Z,3860
2017-06-09T09:33:07.226Z,4056
2017-06-09T09:34:06.901Z,4260
2017-06-09T09:35:06.584Z,4340
2017-06-09T09:36:06.592Z,4536
2017-06-09T09:37:06.914Z,4504
2017-06-09T09:38:06.592Z,4796
2017-06-09T09:39:06.592Z,5036
2017-06-09T09:40:07.240Z,5588
2017-06-09T09:41:06.921Z,6088
2017-06-09T09:42:06.936Z,6768
2017-06-09T09:43:06.624Z,7484
2017-06-09T09:44:06.938Z,7968
2017-06-09T09:45:06.936Z,8252
2017-06-09T09:46:06.936Z,8352
2017-06-09T09:47:06.944Z,8264
2017-06-09T09:48:06.961Z,7668
2017-06-09T09:49:07.264Z,6856
2017-06-09T09:50:06.950Z,6372
2017-06-09T09:51:06.632Z,6176
2017-06-09T09:52:07.301Z,6216
2017-06-09T09:53:06.658Z,6432
2017-06-09T09:54:07.296Z,6652
2017-06-09T09:55:06.338Z,6900
2017-06-09T09:56:07.294Z,7528
2017-06-09T09:57:06.970Z,7928
2017-06-09T09:58:07.023Z,8208
2017-06-09T09:59:06.996Z,8768
2017-06-09T10:00:06.983Z,8996
2017-06-09T10:01:06.342Z,8984
2017-06-09T10:02:07.326Z,8952
2017-06-09T10:03:06.993Z,9116
2017-06-09T10:04:06.673Z,9568
2017-06-09T10:05:07.323Z,9980
2017-06-09T10:06:07.340Z,10048
2017-06-09T10:07:07.013Z,9824
2017-06-09T10:08:07.018Z,9412
2017-06-09T10:09:07.017Z,8964
2017-06-09T10:10:06.692Z,8520
2017-06-09T10:11:06.696Z,8092
2017-06-09T10:12:07.048Z,7824
2017-06-09T10:13:07.039Z,7648
2017-06-09T10:14:06.725Z,7404
2017-06-09T10:15:06.714Z,7360
2017-06-09T10:16:06.730Z,7244
2017-06-09T10:17:07.370Z,7012
2017-06-09T10:18:06.726Z,6836
2017-06-09T10:19:07.068Z,6764
2017-06-09T10:20:06.412Z,6760
2017-06-09T10:21:07.069Z,6680
2017-06-09T10:22:07.061Z,6428
2017-06-09T10:23:07.393Z,6168
2017-06-09T10:24:06.746Z,5928
2017-06-09T10:25:06.429Z,5584
2017-06-09T10:26:06.754Z,5312
2017-06-09T10:27:07.098Z,5048
2017-06-09T10:28:07.113Z,4852
2017-06-09T10:29:07.094Z,4744
2017-06-09T10:30:06.793Z,4904
2017-06-09T10:31:07.104Z,5360
2017-06-09T10:32:07.170Z,5980
2017-06-09T10:33:07.107Z,7064
2017-06-09T10:34:06.805Z,7600
2017-06-09T10:35:06.797Z,7644
2017-06-09T10:36:07.448Z,7328
2017-06-09T10:37:06.817Z,7304
2017-06-09T10:38:06.806Z,7536
2017-06-09T10:39:07.133Z,7932
2017-06-09T10:40:06.815Z,8672
2017-06-09T10:41:07.141Z,9568
2017-06-09T10:42:07.144Z,10228
2017-06-09T10:43:07.165Z,10520
2017-06-09T10:44:07.498Z,10284
2017-06-09T10:45:07.480Z,9844
2017-06-09T10:46:07.488Z,9260
2017-06-09T10:47:07.492Z,8556
2017-06-09T10:48:06.844Z,7908
2017-06-09T10:49:06.526Z,7352
2017-06-09T10:50:06.855Z,6796
2017-06-09T10:51:07.182Z,6276
2017-06-09T10:52:07.514Z,5756
2017-06-09T10:53:06.562Z,5360
2017-06-09T10:54:07.538Z,5048
2017-06-09T10:55:06.883Z,4632
2017-06-09T10:56:07.199Z,4144
2017-06-09T10:57:06.895Z,3968
2017-06-09T10:58:07.211Z,4368
2017-06-09T10:59:07.230Z,5072
2017-06-09T11:00:06.576Z,5660
2017-06-09T11:01:07.540Z,6012
2017-06-09T11:02:06.583Z,6800
2017-06-09T11:03:07.274Z,7420
2017-06-09T11:04:06.913Z,7936
2017-06-09T11:05:07.574Z,8392
2017-06-09T11:06:06.927Z,8624
2017-06-09T11:07:07.250Z,8656
2017-06-09T11:08:07.254Z,8868
2017-06-09T11:09:07.586Z,9312
2017-06-09T11:10:07.262Z,9548
2017-06-09T11:11:07.304Z,9540
2017-06-09T11:12:07.009Z,9260
2017-06-09T11:13:07.284Z,8940
2017-06-09T11:14:06.981Z,8504
2017-06-09T11:15:07.286Z,8184
2017-06-09T11:16:07.291Z,7980
2017-06-09T11:17:07.302Z,7848
2017-06-09T11:18:06.661Z,7704
2017-06-09T11:19:07.309Z,7776
2017-06-09T11:20:07.359Z,8032
2017-06-09T11:21:06.991Z,8324
2017-06-09T11:22:07.034Z,8672
2017-06-09T11:23:07.349Z,9044
2017-06-09T11:24:07.344Z,9256
2017-06-09T11:25:07.332Z,9356
2017-06-09T11:26:07.377Z,9508
2017-06-09T11:27:07.358Z,9764
2017-06-09T11:28:07.673Z,10164
2017-06-09T11:29:07.030Z,10536
2017-06-09T11:30:07.682Z,10912
2017-06-09T11:31:07.362Z,11372
2017-06-09T11:32:07.743Z,11996
2017-06-09T11:33:07.379Z,12912
2017-06-09T11:34:07.375Z,13500
2017-06-09T11:35:07.059Z,13960
2017-06-09T11:36:07.418Z,14548
2017-06-09T11:37:07.410Z,14992
2017-06-09T11:38:07.400Z,15108
2017-06-09T11:39:07.406Z,14848
2017-06-09T11:40:07.762Z,14628
2017-06-09T11:41:07.434Z,14536
2017-06-09T11:42:07.449Z,14576
2017-06-09T11:43:07.746Z,14576
2017-06-09T11:44:07.791Z,14532
2017-06-09T11:45:07.132Z,14544
2017-06-09T11:46:07.764Z,14496
2017-06-09T11:47:07.769Z,14500
2017-06-09T11:48:07.133Z,14460
2017-06-09T11:49:07.128Z,14576
2017-06-09T11:50:07.464Z,14640
2017-06-09T11:51:06.831Z,14480
2017-06-09T11:52:06.825Z,14180
2017-06-09T11:53:07.804Z,13896
2017-06-09T11:54:06.835Z,13740
2017-06-09T11:55:07.481Z,13628
2017-06-09T11:56:07.183Z,13544
2017-06-09T11:57:07.189Z,13628
2017-06-09T11:58:07.505Z,13872
2017-06-09T11:59:07.182Z,13948
2017-06-09T12:00:07.832Z,13924
2017-06-09T12:01:07.187Z,13812
2017-06-09T12:02:06.913Z,13668
2017-06-09T12:03:07.206Z,13384
2017-06-09T12:04:07.544Z,13084
2017-06-09T12:05:07.538Z,12624
2017-06-09T12:06:07.867Z,11968
2017-06-09T12:07:07.242Z,11472
2017-06-09T12:08:07.551Z,11048
2017-06-09T12:09:07.238Z,10744
2017-06-09T12:10:07.559Z,10604
2017-06-09T12:11:07.563Z,10640
2017-06-09T12:12:07.571Z,10716
2017-06-09T12:13:07.578Z,10836
2017-06-09T12:14:07.907Z,10960
2017-06-09T12:15:07.929Z,10856
2017-06-09T12:16:07.608Z,10876
2017-06-09T12:17:07.298Z,10980
2017-06-09T12:18:07.096Z,10996
2017-06-09T12:19:07.098Z,11068
2017-06-09T12:20:07.770Z,11156
2017-06-09T12:21:07.631Z,11284
2017-06-09T12:22:07.363Z,11328
2017-06-09T12:23:08.003Z,11272
2017-06-09T12:24:08.866Z,11268
2017-06-09T12:25:08.540Z,11316
2017-06-09T12:26:07.790Z,11284
2017-06-09T12:27:08.452Z,11232
2017-06-09T12:28:07.976Z,11340
2017-06-09T12:29:07.994Z,11592
2017-06-09T12:30:07.666Z,11720
2017-06-09T12:31:07.366Z,11704
2017-06-09T12:32:07.676Z,11540
2017-06-09T12:33:07.682Z,11496
2017-06-09T12:34:07.369Z,11480
2017-06-09T12:35:07.693Z,11304
2017-06-09T12:36:07.697Z,11076
2017-06-09T12:37:07.851Z,10912
2017-06-09T12:38:07.911Z,10720
2017-06-09T12:39:07.708Z,10448
2017-06-09T12:40:07.393Z,10204
2017-06-09T12:41:08.044Z,10092
2017-06-09T12:42:07.722Z,9948
2017-06-09T12:43:07.729Z,9740
2017-06-09T12:44:07.415Z,9624
2017-06-09T12:45:07.741Z,9624
2017-06-09T12:46:07.756Z,9588
2017-06-09T12:47:08.093Z,9740
2017-06-09T12:48:07.751Z,9840
2017-06-09T12:49:07.439Z,10064
2017-06-09T12:50:07.133Z,10312
2017-06-09T12:51:07.445Z,10348
2017-06-09T12:52:07.452Z,10204
2017-06-09T12:53:08.100Z,9924
2017-06-09T12:54:07.783Z,9732
2017-06-09T12:55:07.793Z,9668
2017-06-09T12:56:07.793Z,9620
2017-06-09T12:57:08.125Z,9480
2017-06-09T12:58:07.804Z,9452
2017-06-09T12:59:07.512Z,9504
2017-06-09T13:00:08.131Z,9608
2017-06-09T13:01:07.817Z,9732
2017-06-09T13:02:08.144Z,9904
2017-06-09T13:03:07.826Z,10096
2017-06-09T13:04:08.154Z,10256
2017-06-09T13:05:07.842Z,10408
2017-06-09T13:06:07.523Z,10660
2017-06-09T13:07:07.997Z,11004
2017-06-09T13:08:07.876Z,11336
2017-06-09T13:09:07.875Z,11676
2017-06-09T13:10:07.877Z,11952
2017-06-09T13:11:07.552Z,12116
2017-06-09T13:12:07.882Z,12236
2017-06-09T13:13:07.554Z,12308
2017-06-09T13:14:07.556Z,12352
2017-06-09T13:15:08.231Z,12360
2017-06-09T13:16:08.212Z,12364
2017-06-09T13:17:08.235Z,12432
2017-06-09T13:18:07.590Z,12596
2017-06-09T13:19:08.248Z,12840
2017-06-09T13:20:07.283Z,13156
2017-06-09T13:21:08.242Z,13416
2017-06-09T13:22:08.269Z,13616
2017-06-09T13:23:07.944Z,13796
2017-06-09T13:24:07.608Z,13892
2017-06-09T13:25:08.256Z,13968
2017-06-09T13:26:07.939Z,14072
2017-06-09T13:27:07.945Z,14132
2017-06-09T13:28:07.953Z,14156
2017-06-09T13:29:08.276Z,14144
2017-06-09T13:30:08.283Z,14084